createdAt,value
2023-02-22T00:02:24.447Z,23.38
2023-02-22T00:07:25.725Z,23.49
2023-02-22T00:12:27.004Z,23.49
2023-02-22T00:17:28.252Z,23.46
2023-02-22T00:22:29.549Z,23.40
2023-02-22T00:27:30.824Z,23.42
2023-02-22T00:32:32.105Z,23.47
2023-02-22T00:37:33.365Z,23.40
2023-02-22T00:42:34.752Z,23.41
2023-02-22T00:47:36.038Z,23.38
2023-02-22T00:52:37.366Z,23.40
2023-02-22T00:57:38.632Z,23.39
2023-02-22T01:02:39.980Z,23.44
2023-02-22T01:07:41.476Z,23.42
2023-02-22T01:12:42.786Z,23.37
2023-02-22T01:17:44.109Z,23.37
2023-02-22T01:22:45.427Z,23.36
2023-02-22T01:27:46.702Z,23.34
2023-02-22T01:32:47.959Z,23.36
2023-02-22T01:37:49.256Z,23.32
2023-02-22T01:42:50.568Z,23.33
2023-02-22T01:47:51.874Z,23.39
2023-02-22T01:52:53.154Z,23.43
2023-02-22T01:57:54.409Z,23.42
2023-02-22T02:02:55.668Z,23.53
2023-02-22T02:07:56.962Z,23.46
2023-02-22T02:12:58.227Z,23.59
2023-02-22T02:17:59.611Z,23.57
2023-02-22T02:23:00.940Z,23.67
2023-02-22T02:28:02.234Z,23.64
2023-02-22T02:33:03.534Z,23.66
2023-02-22T02:38:04.803Z,23.67
2023-02-22T02:43:06.060Z,23.70
2023-02-22T02:48:07.357Z,23.64
2023-02-22T02:53:08.649Z,23.70
2023-02-22T02:58:09.917Z,23.74
2023-02-22T03:03:11.188Z,23.77
2023-02-22T03:08:12.502Z,23.73
2023-02-22T03:13:13.840Z,23.71
2023-02-22T03:18:15.176Z,23.72
2023-02-22T03:23:16.496Z,23.72
2023-02-22T03:28:17.796Z,23.71
2023-02-22T03:33:19.067Z,23.68
2023-02-22T03:38:20.335Z,23.69
2023-02-22T03:43:21.605Z,23.72
2023-02-22T03:48:22.896Z,23.68
2023-02-22T03:53:24.252Z,23.66
2023-02-22T03:58:25.526Z,23.65
2023-02-22T04:03:26.802Z,23.68
2023-02-22T04:08:28.086Z,23.64
2023-02-22T04:13:29.371Z,23.65
2023-02-22T04:18:30.669Z,23.66
2023-02-22T04:23:31.953Z,23.70
2023-02-22T04:28:33.208Z,23.65
2023-02-22T04:33:34.510Z,23.64
2023-02-22T04:38:35.825Z,23.69
2023-02-22T04:43:37.136Z,23.65
2023-02-22T04:48:38.401Z,23.83
2023-02-22T04:53:39.712Z,23.97
2023-02-22T04:58:41.008Z,24.03
2023-02-22T05:03:42.363Z,24.08
2023-02-22T05:08:43.598Z,24.13
2023-02-22T05:13:44.938Z,24.29
2023-02-22T05:18:46.339Z,24.31
2023-02-22T05:23:47.698Z,24.34
2023-02-22T05:28:49.019Z,24.39
2023-02-22T05:33:50.344Z,24.44
2023-02-22T05:38:51.610Z,24.48
2023-02-22T05:43:52.950Z,24.49
2023-02-22T05:48:54.210Z,24.51
2023-02-22T05:53:55.548Z,24.58
2023-02-22T05:58:56.850Z,24.59
2023-02-22T06:03:58.149Z,24.17
2023-02-22T06:08:59.498Z,24.00
2023-02-22T06:14:00.809Z,23.88
2023-02-22T06:19:02.131Z,23.82
2023-02-22T06:24:03.431Z,23.91
2023-02-22T06:29:04.720Z,23.92
2023-02-22T06:34:06.002Z,23.91
2023-02-22T06:39:07.356Z,23.91
2023-02-22T06:44:08.648Z,23.89
2023-02-22T06:49:09.953Z,23.89
2023-02-22T06:54:11.350Z,23.90
2023-02-22T06:59:12.647Z,23.86
2023-02-22T07:04:13.961Z,23.88
2023-02-22T07:09:15.289Z,23.92
2023-02-22T07:14:16.612Z,23.97
2023-02-22T07:19:17.906Z,24.04
2023-02-22T07:24:19.180Z,24.10
2023-02-22T07:29:20.471Z,24.15
2023-02-22T07:34:21.743Z,24.15
2023-02-22T07:39:23.000Z,24.14
2023-02-22T07:44:24.312Z,24.11
2023-02-22T07:49:25.601Z,24.19
2023-02-22T07:54:26.880Z,24.24
2023-02-22T07:59:28.200Z,24.33
2023-02-22T08:04:29.494Z,24.36
2023-02-22T08:09:30.792Z,24.36
2023-02-22T08:14:32.066Z,24.38
2023-02-22T08:19:33.405Z,24.33
2023-02-22T08:24:34.643Z,24.28
2023-02-22T08:29:35.940Z,24.38
2023-02-22T08:34:37.219Z,24.48
2023-02-22T08:39:38.563Z,24.44
2023-02-22T08:44:39.845Z,24.34
2023-02-22T08:49:41.190Z,24.27
2023-02-22T08:54:42.567Z,24.19
2023-02-22T08:59:43.888Z,24.20
2023-02-22T09:04:45.202Z,24.10
2023-02-22T09:09:46.558Z,24.07
2023-02-22T09:14:47.886Z,24.02
2023-02-22T09:19:49.278Z,23.96
2023-02-22T09:24:50.597Z,23.96
2023-02-22T09:29:51.885Z,23.95
2023-02-22T09:34:53.184Z,23.89
2023-02-22T09:39:54.509Z,23.86
2023-02-22T09:44:55.865Z,23.85
2023-02-22T09:49:57.173Z,23.79
2023-02-22T09:54:58.443Z,23.77
2023-02-22T09:59:59.771Z,23.73
2023-02-22T10:05:01.101Z,23.72
2023-02-22T10:10:02.424Z,23.66
2023-02-22T10:15:03.667Z,23.68
2023-02-22T10:20:04.983Z,23.64
2023-02-22T10:25:08.695Z,23.60
2023-02-22T10:30:23.858Z,23.63
2023-02-22T10:35:26.137Z,23.68
2023-02-22T10:40:27.431Z,23.64
2023-02-22T10:45:28.740Z,23.64
2023-02-22T10:50:30.022Z,23.58
2023-02-22T10:55:31.329Z,23.58
2023-02-22T11:00:32.633Z,23.56
2023-02-22T11:05:33.903Z,23.57
2023-02-22T11:10:35.228Z,23.55
2023-02-22T11:15:36.596Z,23.56
2023-02-22T11:20:38.007Z,23.47
2023-02-22T11:25:39.327Z,23.54
2023-02-22T11:30:40.680Z,23.50
2023-02-22T11:35:41.966Z,23.44
2023-02-22T11:40:43.296Z,23.42
2023-02-22T11:45:56.628Z,23.38
2023-02-22T11:50:59.482Z,23.36
2023-02-22T11:56:00.829Z,23.33
2023-02-22T12:01:02.129Z,23.33
2023-02-22T12:06:03.431Z,23.29
2023-02-22T12:11:04.785Z,23.27
2023-02-22T12:16:06.120Z,23.24
2023-02-22T12:21:07.454Z,23.22
2023-02-22T12:26:11.457Z,23.19
2023-02-22T12:31:13.141Z,23.16
2023-02-22T12:36:14.663Z,23.14
2023-02-22T12:41:16.263Z,23.13
2023-02-22T12:46:17.680Z,23.09
2023-02-22T12:51:19.172Z,23.07
2023-02-22T12:56:20.597Z,23.05
2023-02-22T13:01:22.120Z,23.03
2023-02-22T13:06:23.475Z,23.00
2023-02-22T13:11:24.801Z,22.99
2023-02-22T13:16:26.177Z,22.98
2023-02-22T13:21:27.440Z,22.98
2023-02-22T13:26:28.763Z,22.94
2023-02-22T13:31:30.246Z,22.93
2023-02-22T13:36:31.733Z,22.92
2023-02-22T13:41:33.010Z,22.90
2023-02-22T13:46:34.403Z,22.90
2023-02-22T13:51:35.836Z,22.88
2023-02-22T13:56:37.103Z,22.86
2023-02-22T14:01:38.480Z,22.84
2023-02-22T14:06:39.796Z,22.84
2023-02-22T14:11:41.182Z,22.83
2023-02-22T14:16:42.490Z,22.81
2023-02-22T14:21:43.821Z,22.80
2023-02-22T14:26:45.129Z,22.79
2023-02-22T14:31:46.706Z,22.78
2023-02-22T14:36:48.018Z,22.76
2023-02-22T14:41:49.307Z,22.82
2023-02-22T14:46:50.689Z,22.76
2023-02-22T14:51:52.005Z,22.73
2023-02-22T14:56:53.298Z,22.72
2023-02-22T15:02:06.021Z,22.70
2023-02-22T15:07:12.628Z,22.70
2023-02-22T15:12:14.413Z,22.67
2023-02-22T15:17:15.733Z,22.67
2023-02-22T15:22:17.026Z,22.64
2023-02-22T15:27:18.317Z,22.64
2023-02-22T15:32:19.790Z,22.63
2023-02-22T15:37:21.184Z,22.62
2023-02-22T15:42:22.477Z,22.59
2023-02-22T15:47:23.776Z,22.58
2023-02-22T15:52:25.097Z,22.57
2023-02-22T15:57:26.420Z,22.55
2023-02-22T16:02:27.827Z,22.54
2023-02-22T16:07:29.142Z,22.52
2023-02-22T16:12:30.412Z,22.51
2023-02-22T16:17:31.731Z,22.50
2023-02-22T16:22:33.079Z,22.48
2023-02-22T16:27:34.408Z,22.47
2023-02-22T16:32:35.816Z,22.44
2023-02-22T16:37:37.271Z,22.44
2023-02-22T16:42:38.594Z,22.41
2023-02-22T16:47:39.879Z,22.42
2023-02-22T16:52:41.195Z,22.39
2023-02-22T16:57:42.475Z,22.48
2023-02-22T17:02:43.760Z,22.49
2023-02-22T17:07:45.161Z,22.55
2023-02-22T17:12:46.398Z,22.53
2023-02-22T17:17:47.728Z,22.55
2023-02-22T17:22:49.046Z,22.55
2023-02-22T17:27:50.334Z,22.54
2023-02-22T17:32:51.650Z,22.55
2023-02-22T17:37:52.901Z,22.54
2023-02-22T17:42:54.228Z,22.57
2023-02-22T17:47:55.496Z,22.59
2023-02-22T17:52:56.802Z,22.62
2023-02-22T17:57:58.059Z,22.64
2023-02-22T18:02:59.406Z,22.63
2023-02-22T18:08:00.796Z,22.64
2023-02-22T18:13:02.179Z,22.65
2023-02-22T18:18:03.448Z,22.61
2023-02-22T18:23:04.731Z,22.62
2023-02-22T18:28:06.034Z,22.63
2023-02-22T18:33:07.306Z,22.60
2023-02-22T18:38:09.631Z,22.58
2023-02-22T18:43:11.818Z,22.56
2023-02-22T18:48:13.096Z,22.53
2023-02-22T18:53:14.484Z,22.57
2023-02-22T18:58:15.892Z,22.57
2023-02-22T19:03:17.150Z,22.58
2023-02-22T19:08:18.453Z,22.49
2023-02-22T19:13:19.779Z,22.53
2023-02-22T19:18:21.156Z,22.46
2023-02-22T19:23:22.463Z,22.45
2023-02-22T19:28:23.801Z,22.40
2023-02-22T19:33:25.050Z,22.43
2023-02-22T19:38:26.306Z,22.52
2023-02-22T19:43:27.562Z,22.46
2023-02-22T19:48:28.819Z,22.46
2023-02-22T19:53:30.138Z,22.43
2023-02-22T19:58:31.495Z,22.43
2023-02-22T20:03:32.877Z,22.45
2023-02-22T20:08:34.182Z,22.42
2023-02-22T20:13:35.476Z,22.40
2023-02-22T20:18:36.813Z,22.39
2023-02-22T20:23:38.076Z,22.40
2023-02-22T20:28:39.368Z,22.38
2023-02-22T20:33:42.163Z,22.45
2023-02-22T20:38:43.522Z,22.57
2023-02-22T20:43:44.804Z,22.79
2023-02-22T20:48:46.199Z,22.92
2023-02-22T20:53:47.467Z,23.07
2023-02-22T20:58:48.758Z,23.08
2023-02-22T21:03:50.042Z,23.26
2023-02-22T21:08:51.456Z,23.18
2023-02-22T21:13:52.780Z,23.25
2023-02-22T21:18:54.097Z,23.32
2023-02-22T21:23:55.425Z,23.34
2023-02-22T21:28:56.662Z,23.39
2023-02-22T21:33:57.932Z,23.44
2023-02-22T21:38:59.217Z,23.42
2023-02-22T21:44:00.496Z,23.46
2023-02-22T21:49:01.801Z,23.48
2023-02-22T21:54:03.180Z,23.52
2023-02-22T21:59:04.491Z,23.48
2023-02-22T22:04:05.810Z,23.47
2023-02-22T22:09:07.093Z,23.47
2023-02-22T22:14:08.342Z,23.44
2023-02-22T22:19:09.604Z,23.45
2023-02-22T22:24:10.923Z,23.46
2023-02-22T22:29:12.224Z,23.45
2023-02-22T22:34:13.589Z,23.48
2023-02-22T22:39:14.999Z,23.46
2023-02-22T22:44:16.347Z,23.59
2023-02-22T22:49:17.624Z,23.56
2023-02-22T22:54:18.931Z,23.51
2023-02-22T22:59:20.287Z,23.51
2023-02-22T23:04:21.540Z,23.48
2023-02-22T23:09:22.825Z,23.50
2023-02-22T23:14:24.308Z,23.47
2023-02-22T23:19:25.592Z,23.50
2023-02-22T23:24:26.831Z,23.48
2023-02-22T23:29:28.102Z,23.53
2023-02-22T23:34:29.397Z,23.51
2023-02-22T23:39:30.703Z,23.51
2023-02-22T23:44:32.005Z,23.50
2023-02-22T23:49:33.292Z,23.53
2023-02-22T23:54:34.595Z,23.48
2023-02-22T23:59:35.988Z,23.48
